Time;durP1;ratioP1;P1;durP2;ratioP2;P2;SDS_P1;SDS_P2;PMS_P1;PMS_P2;Temp;Humidity;BMP_temperature;BMP_pressure;BME280_temperature;BME280_humidity;BME280_pressure;Samples;Min_cycle;Max_cycle;Signal;HPM_P1;HPM_P2
2022/02/26 00:00:50;;;;;;;10.63;2.00;;;2.10;99.90;;;;;;5001448;28;20498;-62
2022/02/26 00:03:15;;;;;;;11.82;2.22;;;2.10;99.90;;;;;;4998350;28;20050;-62
2022/02/26 00:05:43;;;;;;;10.50;1.95;;;2.10;99.90;;;;;;4995783;28;20046;-62
2022/02/26 00:08:08;;;;;;;10.75;1.80;;;2.10;99.90;;;;;;4999108;28;20035;-61
2022/02/26 00:10:34;;;;;;;15.25;3.03;;;2.10;99.90;;;;;;4997891;28;20116;-62
2022/02/26 00:13:00;;;;;;;20.52;3.35;;;2.10;99.90;;;;;;4999509;28;20097;-62
2022/02/26 00:15:25;;;;;;;32.92;3.28;;;2.00;99.90;;;;;;5000749;28;20656;-62
2022/02/26 00:17:51;;;;;;;13.48;2.33;;;2.10;99.90;;;;;;4998187;28;20026;-61
2022/02/26 00:20:17;;;;;;;12.07;2.70;;;2.10;99.90;;;;;;4999617;28;20049;-63
2022/02/26 00:22:42;;;;;;;15.73;2.90;;;2.10;99.90;;;;;;4998775;28;20046;-63
2022/02/26 00:25:08;;;;;;;13.00;3.15;;;2.10;99.90;;;;;;5000168;28;20490;-62
2022/02/26 00:27:34;;;;;;;12.27;2.30;;;2.00;99.90;;;;;;4999512;28;20137;-63
2022/02/26 00:30:00;;;;;;;8.38;2.85;;;2.10;99.90;;;;;;5002444;28;20482;-62
2022/02/26 00:32:26;;;;;;;14.05;2.25;;;2.10;99.90;;;;;;5006656;28;20034;-62
2022/02/26 00:34:51;;;;;;;14.95;2.13;;;2.00;99.90;;;;;;5004653;28;20105;-62
2022/02/26 00:37:17;;;;;;;9.52;2.28;;;2.00;99.90;;;;;;5007767;28;20030;-64
2022/02/26 00:39:43;;;;;;;9.05;3.20;;;2.00;99.90;;;;;;5008031;28;20026;-64
2022/02/26 00:42:08;;;;;;;22.50;3.13;;;2.00;99.90;;;;;;5007620;28;20025;-64
2022/02/26 00:44:34;;;;;;;16.58;2.85;;;2.00;99.90;;;;;;5005624;28;20489;-62
2022/02/26 00:47:01;;;;;;;9.10;2.15;;;2.00;99.90;;;;;;5005792;28;20134;-62
2022/02/26 00:52:11;;;;;;;16.92;2.72;;;2.00;99.90;;;;;;5004310;28;20042;-64
2022/02/26 00:54:37;;;;;;;18.25;2.55;;;1.90;99.90;;;;;;5005035;28;20034;-62
2022/02/26 00:57:03;;;;;;;8.98;2.20;;;1.90;99.90;;;;;;5006134;28;20576;-62
2022/02/26 00:59:28;;;;;;;9.10;2.35;;;1.90;99.90;;;;;;5002335;28;20045;-62
2022/02/26 01:01:54;;;;;;;11.35;2.15;;;1.90;99.90;;;;;;5003012;28;20042;-62
2022/02/26 01:04:20;;;;;;;9.25;2.10;;;1.80;99.90;;;;;;5008153;28;20034;-62
2022/02/26 01:06:45;;;;;;;12.30;1.70;;;1.80;99.90;;;;;;5005920;28;20095;-62
2022/02/26 01:09:11;;;;;;;18.42;2.67;;;1.70;99.90;;;;;;5005480;28;20026;-64
2022/02/26 01:11:37;;;;;;;16.00;2.85;;;1.70;99.90;;;;;;5007774;28;20080;-62
2022/02/26 01:14:02;;;;;;;20.02;2.03;;;1.70;99.90;;;;;;5005563;28;20069;-62
2022/02/26 01:16:28;;;;;;;10.98;2.83;;;1.80;99.90;;;;;;5005776;28;20057;-62
2022/02/26 01:18:54;;;;;;;12.30;2.78;;;1.70;99.90;;;;;;5005118;28;20774;-62
2022/02/26 01:21:20;;;;;;;11.65;3.00;;;1.70;99.90;;;;;;5005417;28;20034;-63
2022/02/26 01:23:46;;;;;;;9.68;2.60;;;1.70;99.90;;;;;;5004336;28;20112;-64
2022/02/26 01:26:12;;;;;;;12.48;2.22;;;1.70;99.90;;;;;;5005629;28;20073;-62
2022/02/26 01:28:37;;;;;;;7.25;2.05;;;1.80;99.90;;;;;;5004544;28;20464;-62
2022/02/26 01:31:03;;;;;;;9.13;2.05;;;1.80;99.90;;;;;;5004577;28;20557;-63
2022/02/26 01:33:29;;;;;;;13.65;2.30;;;1.80;99.90;;;;;;5004006;28;20134;-63
2022/02/26 01:35:55;;;;;;;19.15;3.33;;;1.70;99.90;;;;;;5005160;28;20042;-62
2022/02/26 01:38:20;;;;;;;18.65;2.78;;;1.70;99.90;;;;;;5006691;28;20429;-61
2022/02/26 01:40:46;;;;;;;13.27;2.40;;;1.70;99.90;;;;;;5002020;28;20049;-62
2022/02/26 01:43:12;;;;;;;15.38;3.53;;;1.70;99.90;;;;;;5006676;28;20040;-62
2022/02/26 01:45:37;;;;;;;10.77;2.67;;;1.70;99.90;;;;;;4999806;28;20048;-62
2022/02/26 01:48:04;;;;;;;6.28;1.40;;;1.70;99.90;;;;;;5000631;28;20444;-62
2022/02/26 01:50:29;;;;;;;6.72;2.22;;;1.70;99.90;;;;;;5001799;28;20089;-63
2022/02/26 01:52:57;;;;;;;9.85;2.67;;;1.60;99.90;;;;;;5000874;28;20038;-62
2022/02/26 01:55:25;;;;;;;7.47;2.17;;;1.60;99.90;;;;;;5000981;28;20044;-63
2022/02/26 01:57:50;;;;;;;16.38;3.08;;;1.60;99.90;;;;;;5001939;28;20030;-63
2022/02/26 02:00:16;;;;;;;15.75;2.50;;;1.60;99.90;;;;;;5000429;28;20125;-62
2022/02/26 02:02:42;;;;;;;11.93;2.90;;;1.60;99.90;;;;;;5003745;28;20113;-62
2022/02/26 02:05:08;;;;;;;14.45;3.10;;;1.60;99.90;;;;;;5001019;28;20401;-62
2022/02/26 02:07:35;;;;;;;15.32;2.90;;;1.50;99.90;;;;;;5002513;28;20026;-62
2022/02/26 02:10:00;;;;;;;12.48;2.45;;;1.50;99.90;;;;;;5001461;28;20034;-63
2022/02/26 02:12:27;;;;;;;13.70;3.17;;;1.40;99.90;;;;;;5000700;28;20446;-63
2022/02/26 02:14:52;;;;;;;11.98;2.90;;;1.40;99.90;;;;;;5003578;28;20030;-62
2022/02/26 02:17:21;;;;;;;14.00;2.55;;;1.40;99.90;;;;;;5001337;28;20234;-62
2022/02/26 02:19:47;;;;;;;12.88;2.25;;;1.40;99.90;;;;;;4998810;28;20041;-64
2022/02/26 02:22:20;;;;;;;9.77;2.53;;;1.30;99.90;;;;;;5000049;28;20038;-61
2022/02/26 02:24:46;;;;;;;9.70;2.47;;;1.30;99.90;;;;;;4997200;28;20031;-62
2022/02/26 02:27:12;;;;;;;12.05;3.10;;;1.30;99.90;;;;;;5003427;28;20129;-64
2022/02/26 02:29:38;;;;;;;11.07;2.35;;;1.30;99.90;;;;;;4999851;28;20080;-62
2022/02/26 02:32:04;;;;;;;9.00;2.35;;;1.30;99.90;;;;;;5002456;28;20037;-62
2022/02/26 02:34:30;;;;;;;11.07;2.65;;;1.20;99.90;;;;;;5000440;28;20104;-62
2022/02/26 02:36:56;;;;;;;9.77;2.25;;;1.20;99.90;;;;;;5000393;28;20503;-61
2022/02/26 02:39:22;;;;;;;16.73;2.50;;;1.10;99.90;;;;;;5002887;28;20034;-63
2022/02/26 02:41:48;;;;;;;7.82;2.50;;;1.00;99.90;;;;;;5002898;28;20394;-64
2022/02/26 02:44:14;;;;;;;10.68;2.20;;;1.00;99.90;;;;;;5003130;28;20046;-63
2022/02/26 02:46:43;;;;;;;10.45;2.22;;;1.00;99.90;;;;;;4999330;28;20155;-62
2022/02/26 02:49:09;;;;;;;8.45;2.20;;;0.90;99.90;;;;;;4995782;28;20145;-63
2022/02/26 02:51:35;;;;;;;15.80;2.33;;;0.90;99.90;;;;;;5001816;28;20065;-63
2022/02/26 02:54:01;;;;;;;10.45;2.38;;;0.90;99.90;;;;;;5002838;28;20513;-63
2022/02/26 02:56:26;;;;;;;12.30;1.95;;;0.80;99.90;;;;;;5000845;28;20118;-64
2022/02/26 02:58:52;;;;;;;17.73;3.08;;;0.80;99.90;;;;;;4999683;28;20033;-64
2022/02/26 03:01:18;;;;;;;6.80;2.47;;;0.80;99.90;;;;;;5001402;28;20041;-62
2022/02/26 03:03:44;;;;;;;8.20;2.03;;;0.80;99.90;;;;;;4999381;28;20852;-63
2022/02/26 03:06:09;;;;;;;10.98;2.60;;;0.70;99.90;;;;;;5002983;28;20045;-62
2022/02/26 03:08:35;;;;;;;12.98;2.72;;;0.70;99.90;;;;;;4999331;28;20037;-64
2022/02/26 03:11:01;;;;;;;9.18;3.13;;;0.70;99.90;;;;;;5001744;28;20035;-62
2022/02/26 03:13:28;;;;;;;15.38;2.60;;;0.70;99.90;;;;;;4999831;28;20084;-61
2022/02/26 03:15:55;;;;;;;14.32;2.47;;;0.70;99.90;;;;;;5001179;28;20030;-62
2022/02/26 03:18:23;;;;;;;14.95;3.10;;;0.70;99.90;;;;;;5000926;28;20096;-61
2022/02/26 03:20:49;;;;;;;10.25;2.78;;;0.70;99.90;;;;;;4999552;28;20023;-63
2022/02/26 03:23:15;;;;;;;15.98;2.80;;;0.80;99.90;;;;;;5001991;28;20061;-61
2022/02/26 03:25:41;;;;;;;16.02;3.38;;;0.80;99.90;;;;;;4998678;28;20097;-61
2022/02/26 03:28:07;;;;;;;21.67;3.60;;;0.80;99.90;;;;;;5002225;28;20397;-61
2022/02/26 03:30:33;;;;;;;17.85;3.95;;;0.80;99.90;;;;;;4996225;28;20563;-62
2022/02/26 03:33:00;;;;;;;17.30;3.25;;;0.80;99.90;;;;;;4999945;28;20041;-62
2022/02/26 03:35:26;;;;;;;13.35;3.10;;;0.80;99.90;;;;;;4999051;28;20042;-64
2022/02/26 03:37:52;;;;;;;11.13;2.95;;;0.80;99.90;;;;;;4999343;28;20044;-62
2022/02/26 03:40:17;;;;;;;16.42;3.45;;;0.80;99.90;;;;;;4999221;28;20035;-64
2022/02/26 03:42:43;;;;;;;11.15;2.80;;;0.80;99.90;;;;;;5001634;28;20041;-62
2022/02/26 03:45:10;;;;;;;16.17;4.55;;;0.70;99.90;;;;;;5002065;28;20068;-63
2022/02/26 03:47:36;;;;;;;17.27;3.58;;;0.70;99.90;;;;;;4994553;28;20033;-62
2022/02/26 03:50:03;;;;;;;12.35;3.83;;;0.70;99.90;;;;;;5001194;28;20033;-63
2022/02/26 03:52:28;;;;;;;13.27;3.70;;;0.70;99.90;;;;;;4998809;28;20067;-62
2022/02/26 03:54:55;;;;;;;17.08;3.38;;;0.60;99.90;;;;;;5000651;28;20367;-63
2022/02/26 03:57:21;;;;;;;8.02;2.42;;;0.60;99.90;;;;;;4998447;28;20029;-61
2022/02/26 03:59:46;;;;;;;12.48;3.60;;;0.60;99.90;;;;;;4998997;28;20041;-62
2022/02/26 04:02:12;;;;;;;10.23;2.80;;;0.60;99.90;;;;;;5001325;28;20474;-63
2022/02/26 04:04:37;;;;;;;10.63;2.78;;;0.60;99.90;;;;;;4997598;28;20038;-63
2022/02/26 04:07:05;;;;;;;16.05;3.45;;;0.60;99.90;;;;;;5001885;28;20064;-62
2022/02/26 04:09:31;;;;;;;8.88;2.50;;;0.50;99.90;;;;;;4998477;28;20045;-61
2022/02/26 04:11:56;;;;;;;15.70;3.35;;;0.50;99.90;;;;;;5000027;28;20034;-61
2022/02/26 04:14:22;;;;;;;15.15;3.25;;;0.50;99.90;;;;;;4999049;28;20041;-61
2022/02/26 04:16:48;;;;;;;14.38;3.63;;;0.50;99.90;;;;;;4999813;28;20038;-61
2022/02/26 04:19:13;;;;;;;7.68;2.63;;;0.50;99.90;;;;;;4999610;28;20061;-63
2022/02/26 04:21:39;;;;;;;11.35;3.38;;;0.50;99.90;;;;;;4997435;28;20038;-63
2022/02/26 04:24:05;;;;;;;15.55;3.88;;;0.50;99.90;;;;;;5001483;28;20038;-62
2022/02/26 04:26:31;;;;;;;11.50;2.70;;;0.50;99.90;;;;;;4998037;28;20041;-62
2022/02/26 04:28:57;;;;;;;11.25;2.63;;;0.60;99.90;;;;;;5000813;28;20532;-61
2022/02/26 04:31:23;;;;;;;6.40;2.47;;;0.60;99.90;;;;;;4998695;28;20041;-62
2022/02/26 04:33:49;;;;;;;11.48;2.58;;;0.60;99.90;;;;;;5002324;28;20046;-62
2022/02/26 04:36:15;;;;;;;7.22;2.15;;;0.60;99.90;;;;;;4999241;28;20454;-61
2022/02/26 04:38:42;;;;;;;6.25;2.20;;;0.60;99.90;;;;;;5000344;28;20030;-62
2022/02/26 04:41:08;;;;;;;6.85;2.40;;;0.60;99.90;;;;;;4996450;28;20049;-62
2022/02/26 04:43:36;;;;;;;4.97;2.67;;;0.60;99.90;;;;;;5001194;28;20031;-62
2022/02/26 04:46:02;;;;;;;5.07;2.33;;;0.60;99.90;;;;;;4997643;28;20524;-61
2022/02/26 04:48:27;;;;;;;9.02;2.80;;;0.60;99.90;;;;;;4998184;28;20038;-63
2022/02/26 04:50:53;;;;;;;9.75;2.50;;;0.60;99.90;;;;;;4997939;28;20660;-63
2022/02/26 04:53:19;;;;;;;6.80;2.55;;;0.60;99.90;;;;;;4998742;28;20041;-63
2022/02/26 04:55:44;;;;;;;4.65;2.13;;;0.60;99.90;;;;;;4997659;28;20034;-61
2022/02/26 04:58:10;;;;;;;7.53;2.75;;;0.60;99.90;;;;;;5001405;28;20069;-63
2022/02/26 05:00:36;;;;;;;8.48;2.63;;;0.60;99.90;;;;;;5000417;28;20041;-61
2022/02/26 05:03:02;;;;;;;6.50;2.65;;;0.60;99.90;;;;;;4997878;28;20034;-62
2022/02/26 05:05:28;;;;;;;6.95;2.30;;;0.50;99.90;;;;;;4999243;28;20460;-64
2022/02/26 05:07:53;;;;;;;6.55;2.00;;;0.50;99.90;;;;;;4997468;28;20041;-62
2022/02/26 05:10:19;;;;;;;8.15;2.65;;;0.50;99.90;;;;;;4997556;28;20038;-62
2022/02/26 05:12:45;;;;;;;10.93;2.65;;;0.50;99.90;;;;;;4999706;28;20559;-62
2022/02/26 05:15:11;;;;;;;10.40;2.90;;;0.40;99.90;;;;;;4998148;28;20410;-62
2022/02/26 05:17:40;;;;;;;4.65;2.10;;;0.40;99.90;;;;;;5003108;28;20030;-62
2022/02/26 05:20:08;;;;;;;8.20;2.58;;;0.40;99.90;;;;;;4999947;28;20397;-61
2022/02/26 05:22:36;;;;;;;5.97;1.70;;;0.40;99.90;;;;;;5004285;28;20112;-62
2022/02/26 05:25:07;;;;;;;12.38;2.65;;;0.40;99.90;;;;;;4997789;28;20034;-62
2022/02/26 05:27:33;;;;;;;;;;;0.40;99.90;;;;;;4998021;28;20490;-61
2022/02/26 05:29:58;;;;;;;5.30;2.00;;;0.30;99.90;;;;;;5004228;28;19980;-60
2022/02/26 05:32:24;;;;;;;9.27;2.05;;;0.30;99.90;;;;;;5001429;28;20034;-63
2022/02/26 05:34:52;;;;;;;5.93;2.15;;;0.30;99.90;;;;;;5003366;28;20038;-62
2022/02/26 05:37:19;;;;;;;7.22;3.00;;;0.30;99.90;;;;;;5002281;28;20466;-68
2022/02/26 05:39:45;;;;;;;9.95;2.30;;;0.30;99.90;;;;;;5002494;28;20057;-63
2022/02/26 05:42:11;;;;;;;5.63;1.92;;;0.30;99.90;;;;;;5004017;28;20490;-64
2022/02/26 05:44:36;;;;;;;6.90;1.75;;;0.20;99.90;;;;;;5001171;28;20182;-62
2022/02/26 05:47:02;;;;;;;7.38;2.20;;;0.20;99.90;;;;;;5004094;28;20037;-62
2022/02/26 05:49:28;;;;;;;5.68;1.95;;;0.20;99.90;;;;;;5000530;28;20439;-62
2022/02/26 05:51:53;;;;;;;6.35;1.80;;;0.20;99.90;;;;;;5003137;28;20049;-63
2022/02/26 05:54:19;;;;;;;4.53;1.80;;;0.10;99.90;;;;;;5001827;28;20093;-63
2022/02/26 05:56:44;;;;;;;8.77;2.10;;;0.10;99.90;;;;;;5002123;28;20030;-61
2022/02/26 05:59:10;;;;;;;4.50;1.65;;;0.10;99.90;;;;;;5003731;28;20034;-62
2022/02/26 06:01:35;;;;;;;8.00;1.92;;;0.10;99.90;;;;;;5000133;28;20117;-62
2022/02/26 06:04:01;;;;;;;8.70;2.15;;;0.20;99.90;;;;;;5004245;28;20026;-62
2022/02/26 06:06:27;;;;;;;4.15;1.70;;;0.10;99.90;;;;;;4994901;28;20092;-65
2022/02/26 06:08:53;;;;;;;4.15;1.85;;;0.20;99.90;;;;;;5003114;28;20038;-62
2022/02/26 06:11:19;;;;;;;11.90;3.22;;;0.20;99.90;;;;;;5000817;28;20128;-68
2022/02/26 06:13:45;;;;;;;8.55;2.70;;;0.20;99.90;;;;;;5001818;28;20089;-64
2022/02/26 06:16:11;;;;;;;15.10;3.47;;;0.20;99.90;;;;;;5002354;28;20390;-62
2022/02/26 06:18:37;;;;;;;9.27;2.30;;;0.30;99.90;;;;;;5000867;28;20039;-62
2022/02/26 06:21:03;;;;;;;9.50;2.20;;;0.30;99.90;;;;;;5003198;28;20037;-61
2022/02/26 06:23:28;;;;;;;7.78;1.60;;;0.30;99.90;;;;;;4999896;28;20034;-62
2022/02/26 06:25:54;;;;;;;11.75;1.92;;;0.20;99.90;;;;;;5003481;28;20172;-62
2022/02/26 06:28:20;;;;;;;6.18;2.33;;;0.30;99.90;;;;;;5000142;28;20124;-62
2022/02/26 06:30:45;;;;;;;6.50;2.10;;;0.20;99.90;;;;;;4999975;28;20045;-62
2022/02/26 06:33:13;;;;;;;7.13;2.17;;;0.20;99.90;;;;;;5001540;28;20027;-62
2022/02/26 06:35:40;;;;;;;10.23;2.55;;;0.20;99.90;;;;;;5000606;28;20038;-63
2022/02/26 06:38:05;;;;;;;7.43;2.10;;;0.20;99.90;;;;;;5000905;28;20038;-63
2022/02/26 06:40:31;;;;;;;9.57;2.60;;;0.20;99.90;;;;;;5002160;28;20045;-61
2022/02/26 06:42:57;;;;;;;8.57;2.65;;;0.20;99.90;;;;;;5003523;28;20640;-62
2022/02/26 06:45:22;;;;;;;6.28;2.00;;;0.30;99.90;;;;;;4999826;28;20090;-62
2022/02/26 06:47:48;;;;;;;6.32;1.90;;;0.20;99.90;;;;;;5002501;28;20486;-62
2022/02/26 06:50:13;;;;;;;13.25;2.72;;;0.20;99.90;;;;;;5000755;28;20048;-62
2022/02/26 06:52:39;;;;;;;8.98;2.28;;;0.20;99.90;;;;;;5000764;28;20443;-62
2022/02/26 06:55:05;;;;;;;10.63;2.38;;;0.30;99.90;;;;;;5000185;28;20031;-62
2022/02/26 06:57:30;;;;;;;10.25;2.50;;;0.30;99.90;;;;;;4996574;28;20050;-62
2022/02/26 06:59:56;;;;;;;7.65;2.83;;;0.30;99.90;;;;;;4994709;28;20073;-63
2022/02/26 07:02:22;;;;;;;12.07;2.83;;;0.40;99.90;;;;;;4994694;28;20034;-62
2022/02/26 07:04:47;;;;;;;14.35;3.50;;;0.40;99.90;;;;;;4995802;28;20058;-61
2022/02/26 07:07:13;;;;;;;9.30;4.07;;;0.50;99.90;;;;;;4997678;28;20062;-61
2022/02/26 07:09:40;;;;;;;14.73;3.53;;;0.60;99.90;;;;;;4997570;28;20049;-62
2022/02/26 07:12:07;;;;;;;12.32;3.83;;;0.70;99.90;;;;;;4998035;28;20038;-63
2022/02/26 07:14:32;;;;;;;11.82;3.45;;;0.80;99.90;;;;;;4996162;28;20076;-63
2022/02/26 07:16:58;;;;;;;10.23;3.40;;;0.80;99.90;;;;;;4997608;28;20573;-62
2022/02/26 07:19:24;;;;;;;27.80;7.45;;;0.90;99.90;;;;;;4999085;28;20501;-64
2022/02/26 07:21:49;;;;;;;11.98;3.55;;;1.00;99.90;;;;;;4996580;28;20402;-62
2022/02/26 07:24:15;;;;;;;12.48;3.58;;;1.00;99.90;;;;;;4999437;28;20049;-62
2022/02/26 07:26:40;;;;;;;14.52;4.47;;;1.00;99.90;;;;;;4998011;28;20042;-63
2022/02/26 07:29:06;;;;;;;12.40;5.25;;;1.10;99.90;;;;;;4998639;28;20089;-61
2022/02/26 07:31:32;;;;;;;11.50;3.58;;;1.10;99.90;;;;;;4998445;28;20042;-62
2022/02/26 07:33:57;;;;;;;18.90;4.00;;;1.10;99.90;;;;;;4998670;28;20133;-62
2022/02/26 07:36:23;;;;;;;18.13;4.85;;;1.20;99.90;;;;;;4999977;28;20379;-60
2022/02/26 07:38:49;;;;;;;10.10;4.50;;;1.30;99.90;;;;;;4998146;28;20062;-63
2022/02/26 07:41:14;;;;;;;16.23;4.60;;;1.30;99.90;;;;;;5001134;28;20077;-64
2022/02/26 07:43:40;;;;;;;17.08;4.35;;;1.40;99.90;;;;;;5001818;28;20038;-62
2022/02/26 07:46:07;;;;;;;11.20;3.67;;;1.50;99.90;;;;;;5000912;28;20482;-62
2022/02/26 07:48:33;;;;;;;14.68;3.85;;;1.60;99.90;;;;;;4997905;28;20077;-63
2022/02/26 07:50:59;;;;;;;17.27;5.63;;;1.60;99.90;;;;;;5001413;28;20034;-62
2022/02/26 07:53:24;;;;;;;15.48;5.32;;;1.70;99.90;;;;;;4998171;28;20049;-62
2022/02/26 07:55:51;;;;;;;15.85;5.47;;;1.90;99.90;;;;;;5001847;28;20022;-61
2022/02/26 07:58:16;;;;;;;13.70;4.97;;;2.10;99.90;;;;;;4995287;28;20038;-63
2022/02/26 08:00:42;;;;;;;19.20;5.47;;;2.50;99.90;;;;;;4997656;28;20026;-63
2022/02/26 08:03:08;;;;;;;15.20;5.10;;;2.80;99.90;;;;;;4999262;28;20502;-61
2022/02/26 08:05:34;;;;;;;14.77;6.15;;;3.20;99.90;;;;;;4999688;28;20439;-64
2022/02/26 08:08:00;;;;;;;18.77;7.40;;;3.50;99.90;;;;;;4996778;28;20035;-64
2022/02/26 08:10:26;;;;;;;20.27;8.27;;;3.70;99.90;;;;;;4998734;28;20084;-64
2022/02/26 08:12:54;;;;;;;20.48;8.15;;;3.70;99.90;;;;;;4997739;28;20486;-62
2022/02/26 08:15:20;;;;;;;22.38;9.68;;;3.80;99.90;;;;;;5000097;28;20046;-62
2022/02/26 08:17:46;;;;;;;17.67;8.63;;;3.90;99.90;;;;;;4997039;28;20409;-63
2022/02/26 08:20:14;;;;;;;15.40;7.68;;;3.90;99.90;;;;;;4998159;28;20036;-62
2022/02/26 08:22:40;;;;;;;14.25;6.80;;;4.00;99.90;;;;;;4999095;28;20045;-63
2022/02/26 08:25:06;;;;;;;17.08;6.07;;;4.10;99.90;;;;;;4999522;28;20030;-64
2022/02/26 08:27:32;;;;;;;15.13;6.10;;;4.00;99.90;;;;;;4998299;28;20434;-63
2022/02/26 08:29:58;;;;;;;8.85;5.68;;;4.00;99.90;;;;;;5000001;28;20030;-62
2022/02/26 08:32:23;;;;;;;12.43;6.15;;;4.00;99.90;;;;;;4996896;28;20066;-63
2022/02/26 08:34:49;;;;;;;13.27;4.50;;;4.00;99.90;;;;;;5000775;28;20481;-62
2022/02/26 08:37:15;;;;;;;11.00;4.88;;;4.00;99.90;;;;;;4996973;28;20034;-62
2022/02/26 08:39:41;;;;;;;12.90;3.70;;;4.00;99.90;;;;;;4997795;28;20030;-62
2022/02/26 08:42:07;;;;;;;11.93;3.75;;;4.10;99.90;;;;;;5002237;28;20128;-61
2022/02/26 08:44:33;;;;;;;9.82;3.80;;;4.20;99.90;;;;;;4998604;28;20120;-63
2022/02/26 08:46:59;;;;;;;9.75;3.13;;;4.20;99.90;;;;;;4998383;28;20375;-63
2022/02/26 08:49:25;;;;;;;7.40;3.38;;;4.30;99.90;;;;;;4999308;28;20189;-63
2022/02/26 08:51:52;;;;;;;10.30;3.22;;;4.30;99.90;;;;;;4999466;28;20038;-63
2022/02/26 08:54:18;;;;;;;10.13;3.83;;;4.40;99.90;;;;;;5000641;28;20062;-64
2022/02/26 08:56:45;;;;;;;8.68;3.13;;;4.40;99.90;;;;;;4999877;28;21212;-64
2022/02/26 08:59:11;;;;;;;7.85;3.50;;;4.40;99.90;;;;;;5001714;28;20033;-62
2022/02/26 09:01:37;;;;;;;10.00;3.15;;;4.50;99.90;;;;;;5001222;28;20034;-62
2022/02/26 09:04:04;;;;;;;8.52;3.58;;;4.60;99.90;;;;;;5001988;28;20060;-63
2022/02/26 09:06:29;;;;;;;9.88;4.07;;;4.70;99.90;;;;;;5001411;28;20049;-64
2022/02/26 09:08:55;;;;;;;8.75;3.78;;;4.80;99.90;;;;;;4992703;28;20038;-61
2022/02/26 09:11:21;;;;;;;7.18;3.30;;;4.90;99.90;;;;;;4993210;28;20034;-63
2022/02/26 09:13:47;;;;;;;8.77;2.78;;;5.00;99.90;;;;;;4990168;28;20139;-63
2022/02/26 09:16:14;;;;;;;6.32;2.95;;;5.10;99.90;;;;;;4993039;28;20102;-62
2022/02/26 09:18:41;;;;;;;7.60;2.85;;;5.20;99.90;;;;;;4991864;28;20050;-62
2022/02/26 09:21:07;;;;;;;7.47;2.45;;;5.30;99.90;;;;;;4992256;28;20034;-64
2022/02/26 09:23:33;;;;;;;9.80;2.50;;;5.40;99.90;;;;;;5001452;28;20050;-63
2022/02/26 09:26:04;;;;;;;7.40;3.13;;;5.50;99.90;;;;;;5001949;28;20626;-63
2022/02/26 09:28:33;;;;;;;6.45;3.38;;;5.60;99.90;;;;;;5003268;28;20034;-63
2022/02/26 09:30:59;;;;;;;11.60;3.25;;;5.60;99.90;;;;;;5000615;28;20042;-63
2022/02/26 09:33:25;;;;;;;10.25;3.42;;;5.70;99.90;;;;;;5002100;28;20037;-64
2022/02/26 09:35:51;;;;;;;14.90;4.00;;;5.80;99.90;;;;;;5004046;28;20034;-63
2022/02/26 09:38:16;;;;;;;11.40;3.90;;;5.80;99.90;;;;;;5000239;28;20122;-64
2022/02/26 09:40:42;;;;;;;14.05;3.30;;;5.90;99.90;;;;;;5002837;28;20034;-63
2022/02/26 09:43:09;;;;;;;11.63;2.88;;;5.90;99.90;;;;;;5004303;28;20050;-63
2022/02/26 09:45:35;;;;;;;8.25;2.90;;;6.00;99.90;;;;;;5000639;28;20038;-63
2022/02/26 09:48:02;;;;;;;9.43;3.72;;;6.10;99.90;;;;;;5003194;28;20039;-62
2022/02/26 09:50:27;;;;;;;10.90;3.42;;;6.20;99.90;;;;;;5002516;28;20044;-62
2022/02/26 09:52:54;;;;;;;9.75;3.47;;;6.30;99.90;;;;;;5000796;28;20034;-64
2022/02/26 09:55:20;;;;;;;6.85;3.88;;;6.30;99.90;;;;;;5003761;28;20054;-65
2022/02/26 09:57:46;;;;;;;15.82;3.60;;;6.40;99.90;;;;;;5001378;28;20475;-63
2022/02/26 10:00:12;;;;;;;8.27;3.15;;;6.50;99.90;;;;;;5003216;28;20026;-63
2022/02/26 10:02:39;;;;;;;7.70;3.22;;;6.60;99.90;;;;;;5000169;28;20042;-63
2022/02/26 10:05:09;;;;;;;10.98;4.43;;;6.70;99.90;;;;;;5002706;28;20033;-63
2022/02/26 10:07:35;;;;;;;13.95;4.35;;;6.80;99.90;;;;;;5000871;28;20373;-62
2022/02/26 10:10:07;;;;;;;9.00;3.30;;;6.90;99.90;;;;;;5000031;28;20498;-63
2022/02/26 10:12:33;;;;;;;11.95;2.70;;;7.00;99.90;;;;;;5002073;28;20042;-62
2022/02/26 10:15:01;;;;;;;9.77;3.08;;;7.10;99.90;;;;;;5002635;28;20034;-62
2022/02/26 10:17:34;;;;;;;8.10;2.63;;;7.20;99.90;;;;;;4995629;28;20433;-63
2022/02/26 10:20:02;;;;;;;12.88;3.45;;;7.20;99.90;;;;;;4998875;28;20041;-63
2022/02/26 10:22:30;;;;;;;9.60;3.10;;;7.30;99.90;;;;;;5003898;28;20049;-63
2022/02/26 10:25:02;;;;;;;13.60;3.97;;;7.30;99.90;;;;;;5008331;28;20098;-63
2022/02/26 10:27:27;;;;;;;7.63;2.83;;;7.40;99.90;;;;;;5001180;28;20041;-62
2022/02/26 10:29:53;;;;;;;13.10;3.50;;;7.50;99.90;;;;;;5000149;28;20034;-65
2022/02/26 10:32:21;;;;;;;8.15;2.97;;;7.50;99.90;;;;;;5001687;28;20057;-62
2022/02/26 10:34:47;;;;;;;13.60;2.28;;;7.50;99.90;;;;;;4993891;28;20427;-64
2022/02/26 10:37:18;;;;;;;6.95;2.05;;;7.60;99.90;;;;;;4993180;28;20069;-62
2022/02/26 10:39:43;;;;;;;12.25;2.40;;;7.70;99.90;;;;;;4994888;28;20088;-64
2022/02/26 10:42:21;;;;;;;7.03;2.47;;;7.80;99.90;;;;;;4992678;28;20050;-63
2022/02/26 10:45:01;;;;;;;8.75;1.98;;;7.80;99.90;;;;;;4990714;28;20033;-62
2022/02/26 10:47:29;;;;;;;20.58;2.88;;;7.80;99.90;;;;;;4988130;28;20061;-64
2022/02/26 10:49:55;;;;;;;13.50;2.53;;;7.90;99.90;;;;;;4989202;28;20092;-63
2022/02/26 10:52:21;;;;;;;9.73;2.88;;;7.80;99.90;;;;;;4992077;28;20104;-61
2022/02/26 10:54:52;;;;;;;11.00;2.78;;;7.90;99.90;;;;;;4993586;28;20506;-62
2022/02/26 10:57:18;;;;;;;8.75;2.20;;;7.90;99.90;;;;;;4989491;28;20042;-62
2022/02/26 10:59:50;;;;;;;8.60;2.67;;;8.00;99.90;;;;;;5005767;28;20085;-64
2022/02/26 11:02:22;;;;;;;9.75;2.58;;;8.00;99.90;;;;;;4994496;28;20061;-62
2022/02/26 11:04:49;;;;;;;13.60;2.22;;;8.10;99.90;;;;;;4990286;28;20042;-64
2022/02/26 11:07:15;;;;;;;14.43;2.60;;;8.20;99.90;;;;;;4992683;28;20066;-62
2022/02/26 11:09:43;;;;;;;13.93;2.40;;;8.20;99.90;;;;;;4993805;28;20679;-62
2022/02/26 11:12:13;;;;;;;9.27;1.80;;;8.10;99.90;;;;;;4992183;28;20042;-66
2022/02/26 11:14:44;;;;;;;8.90;1.90;;;8.10;99.90;;;;;;4993853;28;20030;-61
2022/02/26 11:17:11;;;;;;;14.20;1.80;;;8.20;99.90;;;;;;4986409;28;20038;-62
2022/02/26 11:19:38;;;;;;;10.27;1.80;;;8.30;99.90;;;;;;4988990;28;20069;-61
2022/02/26 11:22:04;;;;;;;5.53;1.17;;;8.30;99.90;;;;;;4988516;28;20042;-62
2022/02/26 11:24:30;;;;;;;20.48;2.17;;;8.40;99.90;;;;;;4986267;28;20133;-67
2022/02/26 11:26:56;;;;;;;4.93;1.77;;;8.40;99.90;;;;;;4990621;28;20049;-62
2022/02/26 11:29:23;;;;;;;10.25;1.85;;;8.40;99.90;;;;;;4988054;28;20045;-61
2022/02/26 11:32:07;;;;;;;8.95;1.40;;;8.40;99.90;;;;;;4989170;28;20030;-62
2022/02/26 11:34:37;;;;;;;7.15;1.50;;;8.50;99.90;;;;;;4987032;28;20038;-62
2022/02/26 11:37:08;;;;;;;6.13;1.73;;;8.40;99.90;;;;;;4991810;28;20058;-62
2022/02/26 11:40:09;;;;;;;8.20;2.10;;;8.30;99.90;;;;;;4984186;28;20092;-62
2022/02/26 11:42:38;;;;;;;11.15;2.72;;;8.40;99.90;;;;;;4985030;28;20061;-63
2022/02/26 11:45:09;;;;;;;7.50;2.47;;;8.40;99.90;;;;;;4985970;28;20034;-63
2022/02/26 11:47:35;;;;;;;9.77;1.98;;;8.40;99.90;;;;;;4988691;28;20845;-63
2022/02/26 11:50:06;;;;;;;16.15;2.55;;;8.30;99.90;;;;;;4987301;28;20035;-62
2022/02/26 11:52:35;;;;;;;8.35;2.50;;;8.30;99.90;;;;;;4988722;28;20263;-62
2022/02/26 11:55:01;;;;;;;9.68;2.35;;;8.40;99.90;;;;;;4986825;28;20082;-62
2022/02/26 11:57:30;;;;;;;9.60;1.50;;;8.40;99.90;;;;;;4984657;28;20128;-65
2022/02/26 12:00:09;;;;;;;8.48;1.92;;;8.40;99.90;;;;;;4987486;28;20027;-64
2022/02/26 12:02:36;;;;;;;8.00;1.63;;;8.40;99.90;;;;;;4985353;28;20038;-62
2022/02/26 12:05:01;;;;;;;6.78;2.40;;;8.40;99.90;;;;;;4987365;28;20241;-61
2022/02/26 12:07:38;;;;;;;10.88;2.65;;;8.60;99.90;;;;;;4983239;28;20149;-64
2022/02/26 12:10:09;;;;;;;8.07;3.25;;;8.60;99.90;;;;;;4987589;28;20038;-64
2022/02/26 12:12:40;;;;;;;12.65;3.55;;;8.50;99.90;;;;;;4984326;28;20081;-63
2022/02/26 12:15:32;;;;;;;9.95;2.50;;;8.40;99.90;;;;;;4985376;28;20042;-61
2022/02/26 12:18:12;;;;;;;6.32;2.05;;;8.50;99.90;;;;;;4987139;28;20041;-62
2022/02/26 12:20:39;;;;;;;6.85;2.13;;;8.50;99.90;;;;;;4987543;28;20038;-61
2022/02/26 12:23:13;;;;;;;8.90;2.75;;;8.50;99.90;;;;;;4991031;28;20026;-62
2022/02/26 12:25:43;;;;;;;14.75;2.00;;;8.60;99.90;;;;;;4985027;28;20053;-63
2022/02/26 12:28:11;;;;;;;6.80;2.33;;;8.60;99.90;;;;;;4985279;28;20050;-63
2022/02/26 12:31:05;;;;;;;9.50;3.78;;;8.70;99.90;;;;;;4991774;28;20030;-62
2022/02/26 12:33:42;;;;;;;10.73;2.63;;;8.60;99.90;;;;;;4989199;28;20061;-63
2022/02/26 12:36:18;;;;;;;12.65;2.40;;;8.60;99.90;;;;;;4986138;28;20030;-61
2022/02/26 12:38:48;;;;;;;10.00;2.45;;;8.60;99.90;;;;;;4989653;28;20191;-62
2022/02/26 12:41:36;;;;;;;7.85;2.40;;;8.60;99.90;;;;;;4987537;28;20689;-64
2022/02/26 12:44:03;;;;;;;9.02;2.65;;;8.60;99.90;;;;;;4990706;28;20096;-62
2022/02/26 12:46:33;;;;;;;7.18;2.20;;;8.70;99.90;;;;;;4990874;28;20646;-62
2022/02/26 12:49:01;;;;;;;15.43;2.78;;;8.60;99.90;;;;;;4991160;28;20050;-62
2022/02/26 12:51:30;;;;;;;11.18;1.70;;;8.70;99.90;;;;;;4985865;28;20070;-62